Time;durP1;ratioP1;P1;durP2;ratioP2;P2;SDS_P1;SDS_P2;PMS_P1;PMS_P2;Temp;Humidity;BMP_temperature;BMP_pressure;BME280_temperature;BME280_humidity;BME280_pressure;Samples;Min_cycle;Max_cycle;Signal;HPM_P1;HPM_P2
2022/07/24 00:01:41;;;;;;;8.60;5.95;;;;;;;;;;5071545;28;20040;-53
2022/07/24 00:04:08;;;;;;;8.75;6.68;;;;;;;;;;5072001;28;20037;-55
2022/07/24 00:06:35;;;;;;;10.18;6.65;;;;;;;;;;5069987;28;20020;-54
2022/07/24 00:09:02;;;;;;;9.85;6.93;;;;;;;;;;5071170;28;20017;-56
2022/07/24 00:11:29;;;;;;;10.65;7.10;;;;;;;;;;5070836;28;20098;-55
2022/07/24 00:13:56;;;;;;;10.93;6.80;;;;;;;;;;5072029;28;20095;-55
2022/07/24 00:16:23;;;;;;;9.68;7.03;;;;;;;;;;5071443;28;20085;-56
2022/07/24 00:18:50;;;;;;;9.48;6.78;;;;;;;;;;5069604;28;20021;-54
2022/07/24 00:21:17;;;;;;;10.02;6.68;;;;;;;;;;5071496;28;20032;-55
2022/07/24 00:23:44;;;;;;;9.40;6.53;;;;;;;;;;5071672;28;20543;-55
2022/07/24 00:26:12;;;;;;;9.60;6.72;;;;;;;;;;5071552;28;20041;-56
2022/07/24 00:28:38;;;;;;;8.75;6.80;;;;;;;;;;5072038;28;20020;-54
2022/07/24 00:31:06;;;;;;;15.10;6.70;;;;;;;;;;5068650;28;20036;-53
2022/07/24 00:33:33;;;;;;;9.80;6.80;;;;;;;;;;5071189;28;20024;-56
2022/07/24 00:36:00;;;;;;;8.48;6.68;;;;;;;;;;5071872;28;20021;-55
2022/07/24 00:38:27;;;;;;;9.15;6.72;;;;;;;;;;5071094;28;20021;-57
2022/07/24 00:40:54;;;;;;;8.98;6.72;;;;;;;;;;5071872;28;20031;-55
2022/07/24 00:43:21;;;;;;;8.40;6.75;;;;;;;;;;5069006;28;20028;-53
2022/07/24 00:45:48;;;;;;;10.25;7.60;;;;;;;;;;5070039;28;20029;-56
2022/07/24 00:48:16;;;;;;;9.82;7.13;;;;;;;;;;5071418;28;20090;-53
2022/07/24 00:50:43;;;;;;;10.75;6.78;;;;;;;;;;5069497;28;20032;-55
2022/07/24 00:53:11;;;;;;;9.60;7.38;;;;;;;;;;5070766;28;20040;-53
2022/07/24 00:55:38;;;;;;;11.13;7.90;;;;;;;;;;5065605;28;20033;-54
2022/07/24 00:58:05;;;;;;;15.82;8.55;;;;;;;;;;5057023;28;20024;-54
2022/07/24 01:00:32;;;;;;;17.92;9.30;;;;;;;;;;5060728;28;20378;-54
2022/07/24 01:02:59;;;;;;;15.02;9.75;;;;;;;;;;5059185;28;20825;-55
2022/07/24 01:05:26;;;;;;;17.90;9.77;;;;;;;;;;5061085;28;20043;-56
2022/07/24 01:07:53;;;;;;;23.80;10.45;;;;;;;;;;5052831;28;20032;-54
2022/07/24 01:10:20;;;;;;;24.98;10.88;;;;;;;;;;5052142;28;20122;-55
2022/07/24 01:12:47;;;;;;;26.00;9.95;;;;;;;;;;5059394;28;20056;-54
2022/07/24 01:15:14;;;;;;;22.23;10.27;;;;;;;;;;5056303;28;20021;-55
2022/07/24 01:17:42;;;;;;;27.55;9.95;;;;;;;;;;5058726;28;20056;-51
2022/07/24 01:20:09;;;;;;;26.35;10.50;;;;;;;;;;5056728;28;20025;-53
2022/07/24 01:22:36;;;;;;;21.75;10.38;;;;;;;;;;5068295;28;20505;-55
2022/07/24 01:25:04;;;;;;;26.88;10.48;;;;;;;;;;5063771;28;20053;-59
2022/07/24 01:27:31;;;;;;;16.95;10.68;;;;;;;;;;5057962;28;20025;-58
2022/07/24 01:29:58;;;;;;;21.80;9.88;;;;;;;;;;5061149;28;20098;-60
2022/07/24 01:32:25;;;;;;;33.28;10.13;;;;;;;;;;5054495;28;20032;-60
2022/07/24 01:34:51;;;;;;;26.42;9.90;;;;;;;;;;5063442;28;20056;-60
2022/07/24 01:37:18;;;;;;;31.67;11.13;;;;;;;;;;5053643;28;20033;-60
2022/07/24 01:39:45;;;;;;;36.45;11.73;;;;;;;;;;5088460;28;20433;-60
2022/07/24 01:42:12;;;;;;;37.10;11.75;;;;;;;;;;5052457;28;20033;-60
2022/07/24 01:44:39;;;;;;;30.30;11.43;;;;;;;;;;5061573;28;20037;-60
2022/07/24 01:47:06;;;;;;;29.52;11.38;;;;;;;;;;5058227;28;20504;-60
2022/07/24 01:49:33;;;;;;;34.40;12.13;;;;;;;;;;5061067;28;20055;-60
2022/07/24 01:52:00;;;;;;;32.25;13.38;;;;;;;;;;5057926;28;20095;-60
2022/07/24 01:54:27;;;;;;;27.25;11.93;;;;;;;;;;5060855;28;20082;-61
2022/07/24 01:56:54;;;;;;;27.52;10.95;;;;;;;;;;5052958;28;20377;-60
2022/07/24 01:59:21;;;;;;;33.70;11.70;;;;;;;;;;5067340;28;20060;-60
2022/07/24 02:01:48;;;;;;;29.73;11.25;;;;;;;;;;5067171;28;20048;-60
2022/07/24 02:04:15;;;;;;;30.75;10.75;;;;;;;;;;5055693;28;20040;-61
2022/07/24 02:06:42;;;;;;;29.42;10.50;;;;;;;;;;5050353;28;20032;-59
2022/07/24 02:09:09;;;;;;;28.67;10.82;;;;;;;;;;5053109;28;20066;-60
2022/07/24 02:11:36;;;;;;;33.03;11.55;;;;;;;;;;5053466;28;20048;-60
2022/07/24 02:14:03;;;;;;;27.50;11.13;;;;;;;;;;5065350;28;20111;-60
2022/07/24 02:16:30;;;;;;;34.42;9.93;;;;;;;;;;5064223;28;20124;-60
2022/07/24 02:18:57;;;;;;;28.52;10.32;;;;;;;;;;5058063;28;20021;-59
2022/07/24 02:21:24;;;;;;;31.55;10.10;;;;;;;;;;5064230;28;20382;-60
2022/07/24 02:23:51;;;;;;;30.50;9.27;;;;;;;;;;5062350;28;20028;-59
2022/07/24 02:26:18;;;;;;;27.92;10.13;;;;;;;;;;5052377;28;20021;-59
2022/07/24 02:28:45;;;;;;;22.67;10.35;;;;;;;;;;5063645;28;20032;-60
2022/07/24 02:31:12;;;;;;;24.83;9.07;;;;;;;;;;5052978;28;20510;-60
2022/07/24 02:33:39;;;;;;;25.05;9.32;;;;;;;;;;5060800;28;20029;-60
2022/07/24 02:36:06;;;;;;;25.70;9.63;;;;;;;;;;5061062;28;20033;-60
2022/07/24 02:38:33;;;;;;;28.83;9.40;;;;;;;;;;5061095;28;20498;-60
2022/07/24 02:41:00;;;;;;;29.60;9.23;;;;;;;;;;5056829;28;20021;-61
2022/07/24 02:43:27;;;;;;;20.73;8.52;;;;;;;;;;5052386;28;20523;-60
2022/07/24 02:45:54;;;;;;;18.75;7.93;;;;;;;;;;5053597;28;20025;-60
2022/07/24 02:48:21;;;;;;;23.02;8.60;;;;;;;;;;5053389;28;20493;-61
2022/07/24 02:50:48;;;;;;;22.20;9.07;;;;;;;;;;5053460;28;20470;-61
2022/07/24 02:53:15;;;;;;;19.48;8.38;;;;;;;;;;5051916;28;20128;-61
2022/07/24 02:55:42;;;;;;;17.65;8.32;;;;;;;;;;5048431;28;20111;-61
2022/07/24 02:58:09;;;;;;;17.17;7.93;;;;;;;;;;5055494;28;20021;-60
2022/07/24 03:00:37;;;;;;;25.25;7.82;;;;;;;;;;5054346;28;20028;-61
2022/07/24 03:03:04;;;;;;;18.40;8.25;;;;;;;;;;5054372;28;20037;-61
2022/07/24 03:05:31;;;;;;;17.48;8.27;;;;;;;;;;5048126;28;20471;-61
2022/07/24 03:07:58;;;;;;;21.88;8.23;;;;;;;;;;5047117;28;20017;-61
2022/07/24 03:10:25;;;;;;;20.90;8.10;;;;;;;;;;5049803;28;20031;-61
2022/07/24 03:12:52;;;;;;;21.10;8.23;;;;;;;;;;5050515;28;20040;-61
2022/07/24 03:15:19;;;;;;;20.30;7.80;;;;;;;;;;5046860;28;21367;-63
2022/07/24 03:17:50;;;;;;;19.13;7.97;;;;;;;;;;5052019;28;20032;-62
2022/07/24 03:20:17;;;;;;;16.80;7.97;;;;;;;;;;5056289;28;20141;-61
2022/07/24 03:22:45;;;;;;;21.95;7.82;;;;;;;;;;5052796;28;20059;-61
2022/07/24 03:25:12;;;;;;;15.15;7.57;;;;;;;;;;5049825;28;20130;-60
2022/07/24 03:27:39;;;;;;;12.88;6.93;;;;;;;;;;5053329;28;20041;-60
2022/07/24 03:30:07;;;;;;;16.80;7.20;;;;;;;;;;5048545;28;20025;-61
2022/07/24 03:32:34;;;;;;;15.30;7.25;;;;;;;;;;5051794;28;20126;-59
2022/07/24 03:35:01;;;;;;;19.13;7.82;;;;;;;;;;5048224;28;20021;-60
2022/07/24 03:37:28;;;;;;;15.57;6.97;;;;;;;;;;5055302;28;20016;-60
2022/07/24 03:39:55;;;;;;;16.20;7.00;;;;;;;;;;5062084;28;20703;-59
2022/07/24 03:42:22;;;;;;;15.60;6.85;;;;;;;;;;5058519;28;20029;-59
2022/07/24 03:44:49;;;;;;;15.50;6.90;;;;;;;;;;5059630;28;20056;-59
2022/07/24 03:47:16;;;;;;;14.48;6.93;;;;;;;;;;5061281;28;20367;-59
2022/07/24 03:49:43;;;;;;;15.93;7.22;;;;;;;;;;5056583;28;20024;-60
2022/07/24 03:52:10;;;;;;;11.70;6.32;;;;;;;;;;5049834;28;20033;-60
2022/07/24 03:54:37;;;;;;;13.60;6.30;;;;;;;;;;5056504;28;20039;-59
2022/07/24 03:57:04;;;;;;;17.08;6.35;;;;;;;;;;5061816;28;20124;-60
2022/07/24 03:59:31;;;;;;;10.02;5.75;;;;;;;;;;5062009;28;20024;-60
2022/07/24 04:01:58;;;;;;;17.70;6.20;;;;;;;;;;5064885;28;20033;-59
2022/07/24 04:04:25;;;;;;;13.65;6.65;;;;;;;;;;5063448;28;20547;-60
2022/07/24 04:06:52;;;;;;;12.02;6.22;;;;;;;;;;5062800;28;20044;-60
2022/07/24 04:09:19;;;;;;;11.27;5.90;;;;;;;;;;5065109;28;20025;-59
2022/07/24 04:11:46;;;;;;;11.07;6.03;;;;;;;;;;5063526;28;20044;-59
2022/07/24 04:14:13;;;;;;;13.30;5.88;;;;;;;;;;5055244;28;20123;-59
2022/07/24 04:16:40;;;;;;;14.05;5.45;;;;;;;;;;5053951;28;20025;-59
2022/07/24 04:19:07;;;;;;;12.77;5.72;;;;;;;;;;5054793;28;20398;-60
2022/07/24 04:21:34;;;;;;;16.95;6.38;;;;;;;;;;5053548;28;20386;-59
2022/07/24 04:24:01;;;;;;;10.70;5.50;;;;;;;;;;5057131;28;20111;-60
2022/07/24 04:26:28;;;;;;;10.57;5.57;;;;;;;;;;5061927;28;20040;-60
2022/07/24 04:28:55;;;;;;;9.90;5.63;;;;;;;;;;5061146;28;20028;-60
2022/07/24 04:31:22;;;;;;;13.00;5.90;;;;;;;;;;5061604;28;20029;-60
2022/07/24 04:33:49;;;;;;;9.85;5.03;;;;;;;;;;5062284;28;20051;-60
2022/07/24 04:36:16;;;;;;;9.27;5.47;;;;;;;;;;5062713;28;20047;-59
2022/07/24 04:38:43;;;;;;;11.13;5.60;;;;;;;;;;5063174;28;20111;-60
2022/07/24 04:41:10;;;;;;;10.60;5.28;;;;;;;;;;5060023;28;20024;-60
2022/07/24 04:43:37;;;;;;;9.70;5.53;;;;;;;;;;5062743;28;20041;-59
2022/07/24 04:46:04;;;;;;;7.68;5.00;;;;;;;;;;5060780;28;20131;-60
2022/07/24 04:48:32;;;;;;;11.68;5.38;;;;;;;;;;5059538;28;20018;-60
2022/07/24 04:50:59;;;;;;;10.75;5.28;;;;;;;;;;5062486;28;20020;-60
2022/07/24 04:53:26;;;;;;;10.45;5.35;;;;;;;;;;5059796;28;20032;-60
2022/07/24 04:55:53;;;;;;;9.57;5.28;;;;;;;;;;5066665;28;20028;-59
2022/07/24 04:58:20;;;;;;;7.82;4.55;;;;;;;;;;5066584;28;20093;-59
2022/07/24 05:00:47;;;;;;;7.25;4.85;;;;;;;;;;5064965;28;20558;-59
2022/07/24 05:03:14;;;;;;;7.72;4.90;;;;;;;;;;5058766;28;20058;-59
2022/07/24 05:05:41;;;;;;;7.65;4.55;;;;;;;;;;5059640;28;20040;-59
2022/07/24 05:08:08;;;;;;;6.65;4.93;;;;;;;;;;5053985;28;20021;-59
2022/07/24 05:10:35;;;;;;;7.28;4.60;;;;;;;;;;5068436;28;20494;-59
2022/07/24 05:13:02;;;;;;;8.95;4.60;;;;;;;;;;5062586;28;20028;-60
2022/07/24 05:15:29;;;;;;;9.27;4.55;;;;;;;;;;5068605;28;20087;-59
2022/07/24 05:17:56;;;;;;;10.18;5.00;;;;;;;;;;5072242;28;20466;-59
2022/07/24 05:20:22;;;;;;;6.80;4.30;;;;;;;;;;5073321;28;20546;-59
2022/07/24 05:22:49;;;;;;;8.23;4.72;;;;;;;;;;5074109;28;20073;-59
2022/07/24 05:25:16;;;;;;;8.45;4.25;;;;;;;;;;5073184;28;20036;-59
2022/07/24 05:27:43;;;;;;;9.02;4.50;;;;;;;;;;5073519;28;20780;-59
2022/07/24 05:30:11;;;;;;;9.32;4.53;;;;;;;;;;5071929;28;20029;-59
2022/07/24 05:32:37;;;;;;;5.90;4.05;;;;;;;;;;5074347;28;20028;-59
2022/07/24 05:35:05;;;;;;;6.32;3.88;;;;;;;;;;5073631;28;20032;-59
2022/07/24 05:37:32;;;;;;;8.02;4.28;;;;;;;;;;5073744;28;20134;-59
2022/07/24 05:39:58;;;;;;;6.32;3.72;;;;;;;;;;5072696;28;20064;-59
2022/07/24 05:42:25;;;;;;;6.93;3.58;;;;;;;;;;5072116;28;20486;-59
2022/07/24 05:44:52;;;;;;;4.90;3.55;;;;;;;;;;5074243;28;20040;-59
2022/07/24 05:47:19;;;;;;;5.10;3.72;;;;;;;;;;5073566;28;20492;-59
2022/07/24 05:49:46;;;;;;;6.35;3.90;;;;;;;;;;5073620;28;20111;-59
2022/07/24 05:52:13;;;;;;;9.10;3.90;;;;;;;;;;5072954;28;20122;-59
2022/07/24 05:54:40;;;;;;;4.85;3.38;;;;;;;;;;5072700;28;20036;-59
2022/07/24 05:57:07;;;;;;;5.40;3.30;;;;;;;;;;5073849;28;20024;-59
2022/07/24 05:59:34;;;;;;;4.03;3.33;;;;;;;;;;5074068;28;20078;-59
2022/07/24 06:02:03;;;;;;;5.65;3.75;;;;;;;;;;5073315;28;20090;-59
2022/07/24 06:04:31;;;;;;;6.60;3.58;;;;;;;;;;5071769;28;20459;-59
2022/07/24 06:06:58;;;;;;;6.90;3.60;;;;;;;;;;5072435;28;20444;-59
2022/07/24 06:09:25;;;;;;;6.15;3.80;;;;;;;;;;5073281;28;20035;-59
2022/07/24 06:11:52;;;;;;;5.10;3.40;;;;;;;;;;5073432;28;20124;-59
2022/07/24 06:14:19;;;;;;;5.97;3.40;;;;;;;;;;5072609;28;20021;-59
2022/07/24 06:16:45;;;;;;;4.75;3.28;;;;;;;;;;5070865;28;20059;-59
2022/07/24 06:19:12;;;;;;;6.07;3.28;;;;;;;;;;5073579;28;20136;-59
2022/07/24 06:21:39;;;;;;;4.35;3.10;;;;;;;;;;5073157;28;20111;-59
2022/07/24 06:24:06;;;;;;;4.70;3.38;;;;;;;;;;5073099;28;20025;-59
2022/07/24 06:26:33;;;;;;;4.68;3.00;;;;;;;;;;5072712;28;20048;-59
2022/07/24 06:29:00;;;;;;;5.03;3.00;;;;;;;;;;5070414;28;20028;-59
2022/07/24 06:31:27;;;;;;;6.93;3.13;;;;;;;;;;5072469;28;20025;-59
2022/07/24 06:33:54;;;;;;;5.00;3.30;;;;;;;;;;5072874;28;20021;-59
2022/07/24 06:36:21;;;;;;;3.67;2.70;;;;;;;;;;5072633;28;20022;-59
2022/07/24 06:38:48;;;;;;;5.47;2.83;;;;;;;;;;5072993;28;20024;-59
2022/07/24 06:41:15;;;;;;;4.35;3.10;;;;;;;;;;5070921;28;20032;-59
2022/07/24 06:43:42;;;;;;;5.13;2.63;;;;;;;;;;5072535;28;20374;-59
2022/07/24 06:46:09;;;;;;;4.35;2.70;;;;;;;;;;5073051;28;20103;-59
2022/07/24 06:48:38;;;;;;;4.32;2.85;;;;;;;;;;5072298;28;20036;-59
2022/07/24 06:51:05;;;;;;;3.85;2.83;;;;;;;;;;5071685;28;20060;-59
2022/07/24 06:53:32;;;;;;;3.65;2.80;;;;;;;;;;5070794;28;20024;-59
2022/07/24 06:55:59;;;;;;;3.35;2.72;;;;;;;;;;5073032;28;20474;-59
2022/07/24 06:58:26;;;;;;;4.05;3.00;;;;;;;;;;5071966;28;20032;-59
2022/07/24 07:00:53;;;;;;;4.53;2.75;;;;;;;;;;5071622;28;20359;-60
2022/07/24 07:03:20;;;;;;;5.00;3.15;;;;;;;;;;5070682;28;20036;-59
2022/07/24 07:05:47;;;;;;;4.05;2.85;;;;;;;;;;5070989;28;20040;-59
2022/07/24 07:08:14;;;;;;;3.72;2.50;;;;;;;;;;5072154;28;20020;-59
2022/07/24 07:10:41;;;;;;;4.10;2.97;;;;;;;;;;5071998;28;20505;-59
2022/07/24 07:13:08;;;;;;;4.75;2.58;;;;;;;;;;5072353;28;20044;-59
2022/07/24 07:15:35;;;;;;;3.70;2.63;;;;;;;;;;5070330;28;20025;-59
2022/07/24 07:18:02;;;;;;;3.10;2.42;;;;;;;;;;5070763;28;20059;-59
2022/07/24 07:20:29;;;;;;;2.55;2.35;;;;;;;;;;5072036;28;20028;-59
2022/07/24 07:22:56;;;;;;;3.33;2.55;;;;;;;;;;5071560;28;20035;-60
2022/07/24 07:25:23;;;;;;;5.47;2.45;;;;;;;;;;5072277;28;20025;-59
2022/07/24 07:27:50;;;;;;;2.58;2.17;;;;;;;;;;5070390;28;20056;-59
2022/07/24 07:30:17;;;;;;;4.53;2.50;;;;;;;;;;5070990;28;20104;-59
2022/07/24 07:32:44;;;;;;;10.55;3.15;;;;;;;;;;5071920;28;20406;-59
2022/07/24 07:35:11;;;;;;;3.33;2.25;;;;;;;;;;5072047;28;20023;-59
2022/07/24 07:37:38;;;;;;;3.13;2.35;;;;;;;;;;5071733;28;20056;-59
2022/07/24 07:40:05;;;;;;;2.50;2.17;;;;;;;;;;5070164;28;20036;-59
2022/07/24 07:42:32;;;;;;;3.63;2.30;;;;;;;;;;5071297;28;20074;-59
2022/07/24 07:44:59;;;;;;;2.67;2.40;;;;;;;;;;5072287;28;20032;-59
2022/07/24 07:47:26;;;;;;;3.35;2.50;;;;;;;;;;5071348;28;20495;-59
2022/07/24 07:49:53;;;;;;;3.38;2.70;;;;;;;;;;5072321;28;20056;-59
2022/07/24 07:52:20;;;;;;;2.80;2.45;;;;;;;;;;5069474;28;20547;-59
2022/07/24 07:54:49;;;;;;;2.50;2.10;;;;;;;;;;5071506;28;20402;-59
2022/07/24 07:57:16;;;;;;;2.38;2.17;;;;;;;;;;5071995;28;20036;-59
2022/07/24 07:59:43;;;;;;;2.53;2.33;;;;;;;;;;5070975;28;20021;-59
2022/07/24 08:02:10;;;;;;;2.40;2.17;;;;;;;;;;5072067;28;20021;-59
2022/07/24 08:04:37;;;;;;;3.17;2.45;;;;;;;;;;5069215;28;20150;-59
2022/07/24 08:07:04;;;;;;;3.28;2.30;;;;;;;;;;5071660;28;20094;-59
2022/07/24 08:09:31;;;;;;;3.00;2.20;;;;;;;;;;5071434;28;20029;-59
2022/07/24 08:11:58;;;;;;;3.03;2.53;;;;;;;;;;5071039;28;20044;-59
2022/07/24 08:14:25;;;;;;;3.15;2.55;;;;;;;;;;5070442;28;20628;-59
2022/07/24 08:16:52;;;;;;;3.58;2.58;;;;;;;;;;5069180;28;20043;-59
2022/07/24 08:19:19;;;;;;;3.47;2.40;;;;;;;;;;5071696;28;20074;-59
2022/07/24 08:21:46;;;;;;;2.35;2.10;;;;;;;;;;5071002;28;20486;-59
2022/07/24 08:24:13;;;;;;;2.90;2.40;;;;;;;;;;5071637;28;20050;-59
2022/07/24 08:26:40;;;;;;;2.40;2.20;;;;;;;;;;5070801;28;20025;-59
2022/07/24 08:29:07;;;;;;;4.00;2.20;;;;;;;;;;5072757;28;20045;-60
2022/07/24 08:31:34;;;;;;;2.30;2.00;;;;;;;;;;5075853;28;20046;-59
2022/07/24 08:34:01;;;;;;;2.88;2.08;;;;;;;;;;5074787;28;20025;-59
2022/07/24 08:36:28;;;;;;;2.40;2.20;;;;;;;;;;5075246;28;20025;-59
2022/07/24 08:38:55;;;;;;;2.72;2.25;;;;;;;;;;5075137;28;20032;-59
2022/07/24 08:41:22;;;;;;;2.92;2.60;;;;;;;;;;5073482;28;20375;-59
2022/07/24 08:43:49;;;;;;;2.03;1.90;;;;;;;;;;5075049;28;20047;-59
2022/07/24 08:46:17;;;;;;;2.78;2.20;;;;;;;;;;5075057;28;20612;-59
2022/07/24 08:48:45;;;;;;;2.97;2.30;;;;;;;;;;5075099;28;20031;-59
2022/07/24 08:51:15;;;;;;;2.35;2.15;;;;;;;;;;5073819;28;20029;-59
2022/07/24 08:53:43;;;;;;;2.58;2.17;;;;;;;;;;5074332;28;20424;-59
2022/07/24 08:56:10;;;;;;;2.78;2.15;;;;;;;;;;5073198;28;20379;-59
2022/07/24 08:58:38;;;;;;;3.00;2.10;;;;;;;;;;5075365;28;20394;-59
2022/07/24 09:01:05;;;;;;;2.35;2.10;;;;;;;;;;5074271;28;20021;-59
2022/07/24 09:03:43;;;;;;;2.22;2.03;;;;;;;;;;5073593;28;20032;-59
2022/07/24 09:06:10;;;;;;;2.17;1.75;;;;;;;;;;5073374;28;20029;-59
2022/07/24 09:08:39;;;;;;;3.30;2.30;;;;;;;;;;5074232;28;20031;-59
2022/07/24 09:11:09;;;;;;;2.65;1.73;;;;;;;;;;5074909;28;20020;-60
2022/07/24 09:16:22;;;;;;;2.85;2.10;;;;;;;;;;5072463;28;20509;-59
2022/07/24 09:18:50;;;;;;;2.45;2.05;;;;;;;;;;5074757;28;20031;-59
2022/07/24 09:21:18;;;;;;;3.00;2.33;;;;;;;;;;5073988;28;20020;-59
2022/07/24 09:23:46;;;;;;;2.83;2.22;;;;;;;;;;5073991;28;20098;-59
2022/07/24 09:26:12;;;;;;;4.10;2.05;;;;;;;;;;5074711;28;20020;-59
2022/07/24 09:28:53;;;;;;;4.15;2.00;;;;;;;;;;5072296;28;20079;-59
2022/07/24 09:31:24;;;;;;;2.05;1.83;;;;;;;;;;5073888;28;20100;-59
2022/07/24 09:33:51;;;;;;;2.05;1.85;;;;;;;;;;5074612;28;20086;-59
2022/07/24 09:36:18;;;;;;;2.55;1.95;;;;;;;;;;5074179;28;20028;-59
2022/07/24 09:38:49;;;;;;;2.47;2.13;;;;;;;;;;5073672;28;20033;-59
2022/07/24 09:41:24;;;;;;;3.00;2.05;;;;;;;;;;5072585;28;20120;-59
2022/07/24 09:43:58;;;;;;;2.28;2.08;;;;;;;;;;5073832;28;20115;-59
2022/07/24 09:46:26;;;;;;;3.92;2.08;;;;;;;;;;5073860;28;20039;-59
2022/07/24 09:48:57;;;;;;;2.30;2.03;;;;;;;;;;5074224;28;20052;-59
2022/07/24 09:51:24;;;;;;;2.38;2.03;;;;;;;;;;5072362;28;20442;-59
2022/07/24 09:53:56;;;;;;;2.15;1.90;;;;;;;;;;5072734;28;20033;-59
2022/07/24 09:56:23;;;;;;;2.35;2.10;;;;;;;;;;5073640;28;20039;-59
2022/07/24 09:58:52;;;;;;;2.10;1.90;;;;;;;;;;5073989;28;20107;-59
2022/07/24 10:01:21;;;;;;;2.55;2.13;;;;;;;;;;5073559;28;20032;-59
2022/07/24 10:03:48;;;;;;;1.98;1.80;;;;;;;;;;5071734;28;20028;-59
2022/07/24 10:06:17;;;;;;;2.05;1.85;;;;;;;;;;5073431;28;20482;-59
2022/07/24 10:08:46;;;;;;;2.70;1.92;;;;;;;;;;5073904;28;20032;-59
2022/07/24 10:11:13;;;;;;;2.20;2.00;;;;;;;;;;5073937;28;20183;-60
2022/07/24 10:13:40;;;;;;;2.33;2.13;;;;;;;;;;5073447;28;20020;-59
2022/07/24 10:16:10;;;;;;;2.20;2.00;;;;;;;;;;5070784;28;20058;-59
2022/07/24 10:18:48;;;;;;;1.67;1.58;;;;;;;;;;5073720;28;20052;-59
2022/07/24 10:21:19;;;;;;;2.95;2.00;;;;;;;;;;5073916;28;20050;-59
2022/07/24 10:23:49;;;;;;;2.50;2.00;;;;;;;;;;5073086;28;20554;-59
2022/07/24 10:26:23;;;;;;;2.35;2.15;;;;;;;;;;5073201;28;20029;-60
2022/07/24 10:28:58;;;;;;;2.33;1.95;;;;;;;;;;5071886;28;20025;-59
2022/07/24 10:31:25;;;;;;;3.63;2.17;;;;;;;;;;5073202;28;20032;-59
2022/07/24 10:33:57;;;;;;;3.38;1.88;;;;;;;;;;5073075;28;20040;-59
2022/07/24 10:36:27;;;;;;;2.63;2.00;;;;;;;;;;5072727;28;20056;-59
2022/07/24 10:39:04;;;;;;;2.40;1.85;;;;;;;;;;5070558;28;20024;-59
2022/07/24 10:41:32;;;;;;;2.15;1.95;;;;;;;;;;5072199;28;20039;-59
2022/07/24 10:44:19;;;;;;;3.20;1.67;;;;;;;;;;5073025;28;20099;-59
2022/07/24 10:47:06;;;;;;;2.83;1.80;;;;;;;;;;5072621;28;20075;-59
2022/07/24 10:49:35;;;;;;;2.20;1.92;;;;;;;;;;5073402;28;20035;-60
2022/07/24 10:52:02;;;;;;;4.28;2.30;;;;;;;;;;5068983;28;20032;-59
2022/07/24 10:54:29;;;;;;;2.35;2.08;;;;;;;;;;5072926;28;20101;-59
2022/07/24 10:56:56;;;;;;;1.77;1.63;;;;;;;;;;5072788;28;20025;-59
2022/07/24 10:59:41;;;;;;;2.00;1.90;;;;;;;;;;5072584;28;20074;-59
2022/07/24 11:02:27;;;;;;;2.15;1.92;;;;;;;;;;5072348;28;20060;-59
2022/07/24 11:05:11;;;;;;;2.28;1.95;;;;;;;;;;5071115;28;20411;-59
2022/07/24 11:07:38;;;;;;;2.20;2.00;;;;;;;;;;5073089;28;20033;-59
2022/07/24 11:10:07;;;;;;;2.10;1.85;;;;;;;;;;5074316;28;20029;-59
2022/07/24 11:12:45;;;;;;;1.85;1.73;;;;;;;;;;5073748;28;20040;-60
2022/07/24 11:18:13;;;;;;;2.05;1.85;;;;;;;;;;5072594;28;20086;-59
2022/07/24 11:20:40;;;;;;;1.80;1.70;;;;;;;;;;5073163;28;20031;-59
2022/07/24 11:23:20;;;;;;;2.33;1.75;;;;;;;;;;5072216;28;20029;-59
2022/07/24 11:25:47;;;;;;;1.98;1.75;;;;;;;;;;5071899;28;20083;-59
2022/07/24 11:28:14;;;;;;;1.92;1.70;;;;;;;;;;5070730;28;20386;-59
2022/07/24 11:30:45;;;;;;;1.90;1.70;;;;;;;;;;5072716;28;20031;-60
2022/07/24 11:33:12;;;;;;;2.08;1.90;;;;;;;;;;5072744;28;20616;-59
2022/07/24 11:35:39;;;;;;;1.90;1.80;;;;;;;;;;5071908;28;20039;-59
2022/07/24 11:38:07;;;;;;;2.28;1.75;;;;;;;;;;5072352;28;20029;-59
2022/07/24 11:40:35;;;;;;;2.03;1.83;;;;;;;;;;5070061;28;20043;-59
2022/07/24 11:43:03;;;;;;;2.30;1.80;;;;;;;;;;5072499;28;20135;-59
2022/07/24 11:45:30;;;;;;;2.65;1.63;;;;;;;;;;5063434;28;20029;-60
2022/07/24 11:47:58;;;;;;;1.95;1.70;;;;;;;;;;5059955;28;20025;-59
2022/07/24 11:50:26;;;;;;;2.22;1.70;;;;;;;;;;5061649;28;20032;-60
2022/07/24 11:52:53;;;;;;;2.25;1.50;;;;;;;;;;5060685;28;20037;-59
2022/07/24 11:55:22;;;;;;;1.58;1.48;;;;;;;;;;5059977;28;20028;-59
2022/07/24 11:57:50;;;;;;;1.60;1.50;;;;;;;;;;5062332;28;20035;-60
2022/07/24 12:00:19;;;;;;;2.78;1.70;;;;;;;;;;5059046;28;20112;-60
2022/07/24 12:02:53;;;;;;;1.75;1.65;;;;;;;;;;5058296;28;20529;-60
2022/07/24 12:05:30;;;;;;;1.67;1.58;;;;;;;;;;5059507;28;20475;-60
2022/07/24 12:07:59;;;;;;;2.08;1.48;;;;;;;;;;5060270;28;20024;-60
2022/07/24 12:10:26;;;;;;;1.75;1.50;;;;;;;;;;5060326;28;20028;-60
2022/07/24 12:12:56;;;;;;;1.60;1.50;;;;;;;;;;5062170;28;20049;-60
2022/07/24 12:15:27;;;;;;;1.52;1.42;;;;;;;;;;5058062;28;20029;-60
2022/07/24 12:17:59;;;;;;;2.20;2.00;;;;;;;;;;5059660;28;20478;-60
2022/07/24 12:20:27;;;;;;;2.45;1.58;;;;;;;;;;5061150;28;20479;-60
2022/07/24 12:22:54;;;;;;;1.88;1.67;;;;;;;;;;5060617;28;20028;-60
2022/07/24 12:25:22;;;;;;;1.92;1.52;;;;;;;;;;5061994;28;20125;-60
2022/07/24 12:27:52;;;;;;;1.80;1.60;;;;;;;;;;5059195;28;20027;-60
2022/07/24 12:30:21;;;;;;;2.55;1.60;;;;;;;;;;5060853;28;20025;-59
2022/07/24 12:33:14;;;;;;;1.60;1.50;;;;;;;;;;5059172;28;20071;-60
2022/07/24 12:35:54;;;;;;;2.17;1.38;;;;;;;;;;5057929;28;20067;-60
2022/07/24 12:38:25;;;;;;;1.48;1.38;;;;;;;;;;5059890;28;20021;-60
2022/07/24 12:40:52;;;;;;;1.33;1.23;;;;;;;;;;5059144;28;20025;-60
2022/07/24 12:43:19;;;;;;;1.98;1.33;;;;;;;;;;5059308;28;20032;-59
2022/07/24 12:45:46;;;;;;;1.65;1.33;;;;;;;;;;5058051;28;20079;-59
2022/07/24 12:48:21;;;;;;;1.50;1.40;;;;;;;;;;5060620;28;20031;-59
2022/07/24 12:51:00;;;;;;;2.03;1.60;;;;;;;;;;5059717;28;20035;-59
2022/07/24 12:53:28;;;;;;;4.40;1.60;;;;;;;;;;5060635;28;20121;-60
2022/07/24 12:56:08;;;;;;;2.35;1.42;;;;;;;;;;5050559;28;20487;-59
2022/07/24 12:58:54;;;;;;;1.73;1.58;;;;;;;;;;5067852;28;20032;-60
2022/07/24 13:01:21;;;;;;;1.85;1.42;;;;;;;;;;5069004;28;20031;-59
2022/07/24 13:03:52;;;;;;;1.88;1.50;;;;;;;;;;5067258;28;20037;-60
2022/07/24 13:06:19;;;;;;;2.08;1.70;;;;;;;;;;5068842;28;20029;-60
2022/07/24 13:08:46;;;;;;;1.67;1.45;;;;;;;;;;5068512;28;20151;-60
2022/07/24 13:11:13;;;;;;;2.53;1.60;;;;;;;;;;5069244;28;20115;-60
2022/07/24 13:13:40;;;;;;;2.20;1.60;;;;;;;;;;5067845;28;20389;-60
2022/07/24 13:16:07;;;;;;;1.70;1.60;;;;;;;;;;5051362;28;20032;-59
2022/07/24 13:18:34;;;;;;;2.08;1.60;;;;;;;;;;5062799;28;20031;-60
2022/07/24 13:21:01;;;;;;;3.17;1.52;;;;;;;;;;5070675;28;20030;-60
2022/07/24 13:23:28;;;;;;;2.03;1.63;;;;;;;;;;5060191;28;20394;-60
2022/07/24 13:25:55;;;;;;;2.03;1.73;;;;;;;;;;5055667;28;20031;-60
2022/07/24 13:28:22;;;;;;;1.70;1.55;;;;;;;;;;5057305;28;20377;-60
2022/07/24 13:30:49;;;;;;;2.65;1.65;;;;;;;;;;5063334;28;20099;-60
2022/07/24 13:33:16;;;;;;;3.10;1.73;;;;;;;;;;5063600;28;20037;-59
2022/07/24 13:35:43;;;;;;;3.20;1.80;;;;;;;;;;5065273;28;20542;-60
2022/07/24 13:38:10;;;;;;;2.42;1.80;;;;;;;;;;5062694;28;20025;-60
2022/07/24 13:40:37;;;;;;;3.25;1.90;;;;;;;;;;5062106;28;20107;-60
2022/07/24 13:43:04;;;;;;;1.92;1.65;;;;;;;;;;5060768;28;20103;-60
2022/07/24 13:45:30;;;;;;;2.58;1.50;;;;;;;;;;5061112;28;20036;-60
2022/07/24 13:47:57;;;;;;;2.90;1.80;;;;;;;;;;5067403;28;20488;-60
2022/07/24 13:50:28;;;;;;;2.97;1.85;;;;;;;;;;5071185;28;20032;-60
2022/07/24 13:52:55;;;;;;;2.20;1.83;;;;;;;;;;5072952;28;20043;-60
2022/07/24 13:55:22;;;;;;;1.65;1.50;;;;;;;;;;5074606;28;20053;-60
2022/07/24 13:57:49;;;;;;;2.97;1.42;;;;;;;;;;5073865;28;20038;-60
2022/07/24 14:00:16;;;;;;;3.75;1.83;;;;;;;;;;5074139;28;20108;-60
2022/07/24 14:02:43;;;;;;;4.43;1.20;;;;;;;;;;5066182;28;20104;-61
2022/07/24 14:05:10;;;;;;;4.90;1.65;;;;;;;;;;5059820;28;20053;-60
2022/07/24 14:07:37;;;;;;;8.75;1.80;;;;;;;;;;5056337;28;20724;-60
2022/07/24 14:10:04;;;;;;;5.60;1.60;;;;;;;;;;5053195;28;20028;-60
2022/07/24 14:12:31;;;;;;;5.88;1.85;;;;;;;;;;5056266;28;20045;-60
2022/07/24 14:14:58;;;;;;;3.00;1.58;;;;;;;;;;5055841;28;20064;-60
2022/07/24 14:17:24;;;;;;;8.07;2.17;;;;;;;;;;5065220;28;20036;-60
2022/07/24 14:19:51;;;;;;;8.80;1.90;;;;;;;;;;5069924;28;20055;-60
2022/07/24 14:22:18;;;;;;;5.70;2.50;;;;;;;;;;5062056;28;20037;-60
2022/07/24 14:24:45;;;;;;;10.32;2.10;;;;;;;;;;5060531;28;20033;-60
2022/07/24 14:27:12;;;;;;;7.32;2.28;;;;;;;;;;5058156;28;20032;-60
2022/07/24 14:29:40;;;;;;;15.55;1.83;;;;;;;;;;5061698;28;20082;-60
2022/07/24 14:32:06;;;;;;;6.88;2.17;;;;;;;;;;5062180;28;20111;-60
2022/07/24 14:34:33;;;;;;;8.52;2.20;;;;;;;;;;5057610;28;20036;-60
2022/07/24 14:37:00;;;;;;;17.90;2.28;;;;;;;;;;5065804;28;20336;-60
2022/07/24 14:39:29;;;;;;;9.25;1.95;;;;;;;;;;5060035;28;20036;-60
2022/07/24 14:41:56;;;;;;;8.55;2.65;;;;;;;;;;5064017;28;20470;-60
2022/07/24 14:44:23;;;;;;;13.38;2.50;;;;;;;;;;5054963;28;20498;-60
2022/07/24 14:46:50;;;;;;;6.68;2.17;;;;;;;;;;5067590;28;20047;-60
2022/07/24 14:49:17;;;;;;;15.13;2.70;;;;;;;;;;5067171;28;20051;-61